createdAt,value
2017-05-14T00:00:09.782Z,99.99
2017-05-14T00:01:10.488Z,99.99
2017-05-14T00:02:11.185Z,99.99
2017-05-14T00:03:11.850Z,99.99
2017-05-14T00:04:12.524Z,99.99
2017-05-14T00:05:13.206Z,99.99
2017-05-14T00:06:13.867Z,99.99
2017-05-14T00:07:14.573Z,99.99
2017-05-14T00:08:15.299Z,99.99
2017-05-14T00:09:15.981Z,99.99
2017-05-14T00:10:16.662Z,99.99
2017-05-14T00:11:17.338Z,99.99
2017-05-14T00:12:18.016Z,99.99
2017-05-14T00:13:18.684Z,99.99
2017-05-14T00:14:19.391Z,99.99
2017-05-14T00:15:20.028Z,99.99
2017-05-14T00:16:20.691Z,99.99
2017-05-14T00:17:21.362Z,99.99
2017-05-14T00:18:22.050Z,99.99
2017-05-14T00:19:22.713Z,99.99
2017-05-14T00:20:23.386Z,99.99
2017-05-14T00:21:24.056Z,99.99
2017-05-14T00:22:24.734Z,99.99
2017-05-14T00:23:25.416Z,99.99
2017-05-14T00:24:26.118Z,99.99
2017-05-14T00:25:26.793Z,99.99
2017-05-14T00:26:27.466Z,99.99
2017-05-14T00:27:28.142Z,99.99
2017-05-14T00:28:28.823Z,99.99
2017-05-14T00:29:29.485Z,99.99
2017-05-14T00:30:30.163Z,99.99
2017-05-14T00:31:30.827Z,99.99
2017-05-14T00:32:31.504Z,99.99
2017-05-14T00:33:32.167Z,99.99
2017-05-14T00:34:32.843Z,99.99
2017-05-14T00:35:33.516Z,99.99
2017-05-14T00:36:34.184Z,99.99
2017-05-14T00:37:34.845Z,99.99
2017-05-14T00:38:35.534Z,99.99
2017-05-14T00:39:36.219Z,99.99
2017-05-14T00:40:36.885Z,99.99
2017-05-14T00:41:37.557Z,99.99
2017-05-14T00:42:38.229Z,99.99
2017-05-14T00:43:38.908Z,99.99
2017-05-14T00:44:39.597Z,99.99
2017-05-14T00:45:40.317Z,99.99
2017-05-14T00:46:41.013Z,99.99
2017-05-14T00:47:41.674Z,99.99
2017-05-14T00:48:42.362Z,99.99
2017-05-14T00:49:43.044Z,99.99
2017-05-14T00:50:43.749Z,99.99
2017-05-14T00:51:44.430Z,99.99
2017-05-14T00:52:45.097Z,99.99
2017-05-14T00:53:45.776Z,99.99
2017-05-14T00:54:46.457Z,99.99
2017-05-14T00:55:47.123Z,99.99
2017-05-14T00:56:47.794Z,99.99
2017-05-14T00:57:48.455Z,99.99
2017-05-14T00:58:49.141Z,99.99
2017-05-14T00:59:49.822Z,99.99
2017-05-14T01:00:50.528Z,99.99
2017-05-14T01:01:51.197Z,99.99
2017-05-14T01:02:51.861Z,99.99
2017-05-14T01:03:52.556Z,99.99
2017-05-14T01:04:53.218Z,99.99
2017-05-14T01:05:53.885Z,99.99
2017-05-14T01:06:54.553Z,99.99
2017-05-14T01:07:55.231Z,99.99
2017-05-14T01:08:55.914Z,99.99
2017-05-14T01:09:56.595Z,99.99
2017-05-14T01:10:57.286Z,99.99
2017-05-14T01:11:57.966Z,99.99
2017-05-14T01:13:01.612Z,99.99
2017-05-14T01:14:02.285Z,99.99
2017-05-14T01:15:02.975Z,99.99
2017-05-14T01:16:03.641Z,99.99
2017-05-14T01:17:04.307Z,99.99
2017-05-14T01:18:04.970Z,99.99
2017-05-14T01:19:05.649Z,99.99
2017-05-14T01:20:06.308Z,99.99
2017-05-14T01:21:06.984Z,99.99
2017-05-14T01:22:07.673Z,99.99
2017-05-14T01:23:08.330Z,99.99
2017-05-14T01:24:09.004Z,99.99
2017-05-14T01:25:09.674Z,99.99
2017-05-14T01:26:10.383Z,99.99
2017-05-14T01:27:11.045Z,99.99
2017-05-14T01:28:11.748Z,99.99
2017-05-14T01:29:12.418Z,99.99
2017-05-14T01:30:13.093Z,99.99
2017-05-14T01:31:13.759Z,99.99
2017-05-14T01:32:14.438Z,99.99
2017-05-14T01:33:15.132Z,99.99
2017-05-14T01:34:15.802Z,99.99
2017-05-14T01:35:16.469Z,99.99
2017-05-14T01:36:17.137Z,99.99
2017-05-14T01:37:17.849Z,99.99
2017-05-14T01:38:18.523Z,99.99
2017-05-14T01:39:19.205Z,99.99
2017-05-14T01:40:19.867Z,99.99
2017-05-14T01:41:20.533Z,99.99
2017-05-14T01:42:21.199Z,99.99
2017-05-14T01:43:21.900Z,99.99
2017-05-14T01:44:22.600Z,99.99
2017-05-14T01:45:23.284Z,99.99
2017-05-14T01:46:23.952Z,99.99
2017-05-14T01:47:24.622Z,99.99
2017-05-14T01:48:25.318Z,99.99
2017-05-14T01:49:25.997Z,99.99
2017-05-14T01:50:26.697Z,99.99
2017-05-14T01:51:27.362Z,99.99
2017-05-14T01:52:28.076Z,99.99
2017-05-14T01:53:28.774Z,99.99
2017-05-14T01:54:29.435Z,99.99
2017-05-14T01:55:30.111Z,99.99
2017-05-14T01:56:30.792Z,99.99
2017-05-14T01:57:31.459Z,99.99
2017-05-14T01:58:32.127Z,99.99
2017-05-14T01:59:32.802Z,99.99
2017-05-14T02:00:33.480Z,99.99
2017-05-14T02:01:34.148Z,99.99
2017-05-14T02:02:34.849Z,99.99
2017-05-14T02:03:35.603Z,99.99
2017-05-14T02:04:36.325Z,99.99
2017-05-14T02:05:37.010Z,99.99
2017-05-14T02:06:37.709Z,99.99
2017-05-14T02:07:38.454Z,99.99
2017-05-14T02:08:39.159Z,99.99
2017-05-14T02:09:39.844Z,99.99
2017-05-14T02:10:40.534Z,99.99
2017-05-14T02:11:41.232Z,99.99
2017-05-14T02:12:41.894Z,99.99
2017-05-14T02:13:42.563Z,99.99
2017-05-14T02:14:43.244Z,99.99
2017-05-14T02:15:43.915Z,99.99
2017-05-14T02:16:44.590Z,99.99
2017-05-14T02:17:45.259Z,99.99
2017-05-14T02:18:45.935Z,99.99
2017-05-14T02:19:46.594Z,99.99
2017-05-14T02:20:47.285Z,99.99
2017-05-14T02:21:47.961Z,99.99
2017-05-14T02:22:48.669Z,99.99
2017-05-14T02:23:49.356Z,99.99
2017-05-14T02:24:50.048Z,99.99
2017-05-14T02:25:50.735Z,99.99
2017-05-14T02:26:51.418Z,99.99
2017-05-14T02:27:52.086Z,99.99
2017-05-14T02:28:52.757Z,99.99
2017-05-14T02:29:53.439Z,99.99
2017-05-14T02:30:54.117Z,99.99
2017-05-14T02:31:54.799Z,99.99
2017-05-14T02:32:55.500Z,99.99
2017-05-14T02:33:56.164Z,99.99
2017-05-14T02:34:56.834Z,99.99
2017-05-14T02:35:57.503Z,99.99
2017-05-14T02:36:58.185Z,99.99
2017-05-14T02:37:58.907Z,99.99
2017-05-14T02:38:59.577Z,99.99
2017-05-14T02:40:00.239Z,99.99
2017-05-14T02:41:00.951Z,99.99
2017-05-14T02:42:01.627Z,99.99
2017-05-14T02:43:02.332Z,99.99
2017-05-14T02:44:03.006Z,99.99
2017-05-14T02:45:03.665Z,99.99
2017-05-14T02:46:04.370Z,99.99
2017-05-14T02:47:05.033Z,99.99
2017-05-14T02:48:05.700Z,99.99
2017-05-14T02:49:06.400Z,99.99
2017-05-14T02:50:07.071Z,99.99
2017-05-14T02:51:07.741Z,99.99
2017-05-14T02:52:08.424Z,99.99
2017-05-14T02:53:09.102Z,99.99
2017-05-14T02:54:09.754Z,99.99
2017-05-14T02:55:10.456Z,99.99
2017-05-14T02:56:11.139Z,99.99
2017-05-14T02:57:11.819Z,99.99
2017-05-14T02:58:12.502Z,99.99
2017-05-14T02:59:13.191Z,99.99
2017-05-14T03:00:13.883Z,99.99
2017-05-14T03:01:14.547Z,99.99
2017-05-14T03:02:15.238Z,99.99
2017-05-14T03:03:15.910Z,99.99
2017-05-14T03:04:16.599Z,99.99
2017-05-14T03:05:17.271Z,99.99
2017-05-14T03:06:17.949Z,99.99
2017-05-14T03:07:18.638Z,99.99
2017-05-14T03:08:19.331Z,99.99
2017-05-14T03:09:20.019Z,99.99
2017-05-14T03:10:20.705Z,99.99
2017-05-14T03:11:21.395Z,99.99
2017-05-14T03:12:22.074Z,99.99
2017-05-14T03:13:22.761Z,99.99
2017-05-14T03:14:23.469Z,99.99
2017-05-14T03:15:24.146Z,99.99
2017-05-14T03:16:24.819Z,99.99
2017-05-14T03:17:25.502Z,99.99
2017-05-14T03:18:26.197Z,99.99
2017-05-14T03:19:26.890Z,99.99
2017-05-14T03:20:27.598Z,99.99
2017-05-14T03:21:28.228Z,99.99
2017-05-14T03:22:28.898Z,99.99
2017-05-14T03:23:29.573Z,99.99
2017-05-14T03:24:30.247Z,99.99
2017-05-14T03:25:30.926Z,99.99
2017-05-14T03:26:31.622Z,99.99
2017-05-14T03:27:32.346Z,99.99
2017-05-14T03:28:33.069Z,99.99
2017-05-14T03:29:33.756Z,99.99
2017-05-14T03:30:34.428Z,99.99
2017-05-14T03:31:35.136Z,99.99
2017-05-14T03:32:35.821Z,99.99
2017-05-14T03:33:36.506Z,99.99
2017-05-14T03:34:37.178Z,99.99
2017-05-14T03:35:37.875Z,99.99
2017-05-14T03:36:38.630Z,99.99
2017-05-14T03:37:39.324Z,99.99
2017-05-14T03:38:40.013Z,99.99
2017-05-14T03:39:40.722Z,99.99
2017-05-14T03:40:41.416Z,99.99
2017-05-14T03:41:42.083Z,99.99
2017-05-14T03:42:42.758Z,99.99
2017-05-14T03:43:43.424Z,99.99
2017-05-14T03:44:44.103Z,99.99
2017-05-14T03:45:44.782Z,99.99
2017-05-14T03:46:45.453Z,99.99
2017-05-14T03:47:46.190Z,99.99
2017-05-14T03:48:46.867Z,99.99
2017-05-14T03:49:47.535Z,99.99
2017-05-14T03:50:48.233Z,99.99
2017-05-14T03:51:48.912Z,99.99
2017-05-14T03:52:49.587Z,99.99
2017-05-14T03:53:50.258Z,99.99
2017-05-14T03:54:50.932Z,99.99
2017-05-14T03:55:51.650Z,99.99
2017-05-14T03:56:52.325Z,99.99
2017-05-14T03:57:52.997Z,99.99
2017-05-14T03:58:53.676Z,99.99
2017-05-14T03:59:54.340Z,99.99
2017-05-14T04:00:55.020Z,99.99
2017-05-14T04:01:55.686Z,99.99
2017-05-14T04:02:56.361Z,99.99
2017-05-14T04:03:57.053Z,99.99
2017-05-14T04:04:57.755Z,99.99
2017-05-14T04:05:58.434Z,99.99
2017-05-14T04:06:59.105Z,99.99
2017-05-14T04:07:59.769Z,99.99
2017-05-14T04:09:00.442Z,99.99
2017-05-14T04:10:01.112Z,99.99
2017-05-14T04:11:01.808Z,99.99
2017-05-14T04:12:02.497Z,99.99
2017-05-14T04:13:03.187Z,99.99
2017-05-14T04:14:03.867Z,99.99
2017-05-14T04:15:04.531Z,99.99
2017-05-14T04:16:05.198Z,99.99
2017-05-14T04:17:05.881Z,99.99
2017-05-14T04:18:06.568Z,99.99
2017-05-14T04:19:07.279Z,99.99
2017-05-14T04:20:07.950Z,99.99
2017-05-14T04:21:08.621Z,99.99
2017-05-14T04:22:09.311Z,99.99
2017-05-14T04:23:09.972Z,99.99
2017-05-14T04:24:10.655Z,99.99
2017-05-14T04:25:11.322Z,99.99
2017-05-14T04:26:12.025Z,99.99
2017-05-14T04:27:12.705Z,99.99
2017-05-14T04:28:13.379Z,99.99
2017-05-14T04:29:14.064Z,99.99
2017-05-14T04:30:14.735Z,99.99
2017-05-14T04:31:15.425Z,99.99
2017-05-14T04:32:16.095Z,99.99
2017-05-14T04:33:16.772Z,99.99
2017-05-14T04:34:17.451Z,99.99
2017-05-14T04:35:18.135Z,99.99
2017-05-14T04:36:18.828Z,99.99
2017-05-14T04:37:19.509Z,99.99
2017-05-14T04:38:20.217Z,99.99
2017-05-14T04:39:20.905Z,99.99
2017-05-14T04:40:21.587Z,99.99
2017-05-14T04:41:22.267Z,99.99
2017-05-14T04:42:22.946Z,99.99
2017-05-14T04:43:23.632Z,99.99
2017-05-14T04:44:24.328Z,99.99
2017-05-14T04:45:25.011Z,99.99
2017-05-14T04:46:25.717Z,99.99
2017-05-14T04:47:26.398Z,99.99
2017-05-14T04:48:27.076Z,99.99
2017-05-14T04:49:27.768Z,99.99
2017-05-14T04:50:28.445Z,99.99
2017-05-14T04:51:29.144Z,99.99
2017-05-14T04:52:29.818Z,99.99
2017-05-14T04:53:30.510Z,99.99
2017-05-14T04:54:31.196Z,99.99
2017-05-14T04:55:31.875Z,99.99
2017-05-14T04:56:32.545Z,99.99
2017-05-14T04:57:33.214Z,99.99
2017-05-14T04:58:33.899Z,99.99
2017-05-14T04:59:34.589Z,99.99
2017-05-14T05:00:35.342Z,99.99
2017-05-14T05:01:36.011Z,99.99
2017-05-14T05:02:36.720Z,99.99
2017-05-14T05:03:37.398Z,99.99
2017-05-14T05:04:38.091Z,99.99
2017-05-14T05:05:38.797Z,99.99
2017-05-14T05:06:39.468Z,99.99
2017-05-14T05:07:40.146Z,99.99
2017-05-14T05:08:40.828Z,99.99
2017-05-14T05:09:41.496Z,99.99
2017-05-14T05:10:42.180Z,99.99
2017-05-14T05:11:42.861Z,99.99
2017-05-14T05:12:43.547Z,99.99
2017-05-14T05:13:44.233Z,99.99
2017-05-14T05:14:44.931Z,99.99
2017-05-14T05:15:45.638Z,99.99
2017-05-14T05:16:46.333Z,99.99
2017-05-14T05:17:47.012Z,99.99
2017-05-14T05:18:47.693Z,99.99
2017-05-14T05:19:48.370Z,99.99
2017-05-14T05:20:49.050Z,99.99
2017-05-14T05:21:49.707Z,99.99
2017-05-14T05:22:50.383Z,99.99
2017-05-14T05:23:51.050Z,99.99
2017-05-14T05:24:51.730Z,99.99
2017-05-14T05:25:52.416Z,99.99
2017-05-14T05:26:53.098Z,99.99
2017-05-14T05:27:53.805Z,99.99
2017-05-14T05:28:54.475Z,99.99
2017-05-14T05:29:55.153Z,99.99
2017-05-14T05:30:55.844Z,99.99
2017-05-14T05:31:56.547Z,99.99
2017-05-14T05:32:57.219Z,99.99
2017-05-14T05:33:57.898Z,99.99
2017-05-14T05:34:58.579Z,99.99
2017-05-14T05:35:59.274Z,99.99
2017-05-14T05:36:59.950Z,99.99
2017-05-14T05:38:00.625Z,99.99
2017-05-14T05:39:01.295Z,99.99
2017-05-14T05:40:01.977Z,99.99
2017-05-14T05:41:02.642Z,99.99
2017-05-14T05:42:03.325Z,99.99
2017-05-14T05:43:03.993Z,99.99
2017-05-14T05:44:04.686Z,99.99
2017-05-14T05:45:05.379Z,99.99
2017-05-14T05:46:06.057Z,99.99
2017-05-14T05:47:06.767Z,99.99
2017-05-14T05:48:07.451Z,99.99
2017-05-14T05:49:08.161Z,99.99
2017-05-14T05:50:08.844Z,99.99
2017-05-14T05:51:09.540Z,99.99
2017-05-14T05:52:10.227Z,99.99
2017-05-14T05:53:10.884Z,99.99
2017-05-14T05:54:11.572Z,99.99
2017-05-14T05:55:12.262Z,99.99
2017-05-14T05:56:12.945Z,99.99
2017-05-14T05:57:13.619Z,99.99
2017-05-14T05:58:14.296Z,99.99
2017-05-14T05:59:14.995Z,99.99
2017-05-14T06:00:15.659Z,99.99
2017-05-14T06:01:16.341Z,99.99
2017-05-14T06:02:17.031Z,99.99
2017-05-14T06:03:17.734Z,99.99
2017-05-14T06:04:18.399Z,99.99
2017-05-14T06:05:19.089Z,99.99
2017-05-14T06:06:19.765Z,99.99
2017-05-14T06:07:20.457Z,99.99
2017-05-14T06:08:21.153Z,99.99
2017-05-14T06:09:21.877Z,99.99
2017-05-14T06:10:22.560Z,99.99
2017-05-14T06:11:23.249Z,99.99
2017-05-14T06:12:23.940Z,99.99
2017-05-14T06:13:24.655Z,99.99
2017-05-14T06:14:25.367Z,99.99
2017-05-14T06:15:26.045Z,99.99
2017-05-14T06:16:26.729Z,99.99
2017-05-14T06:17:27.412Z,99.99
2017-05-14T06:18:28.179Z,99.99
2017-05-14T06:19:28.897Z,99.99
2017-05-14T06:20:29.591Z,99.99
2017-05-14T06:21:30.281Z,99.99
2017-05-14T06:22:30.971Z,99.99
2017-05-14T06:23:31.684Z,99.99
2017-05-14T06:24:32.467Z,99.99
2017-05-14T06:25:33.373Z,99.99
2017-05-14T06:26:34.089Z,99.99
2017-05-14T06:27:34.777Z,99.99
2017-05-14T06:28:35.489Z,99.99
2017-05-14T06:29:36.194Z,99.99
2017-05-14T06:30:36.896Z,99.99
2017-05-14T06:31:37.577Z,99.99
2017-05-14T06:32:38.271Z,99.99
2017-05-14T06:33:38.960Z,99.99
2017-05-14T06:34:39.699Z,99.99
2017-05-14T06:35:40.392Z,99.99
2017-05-14T06:36:41.094Z,98.1
2017-05-14T06:37:41.781Z,97.42
2017-05-14T06:38:42.478Z,96.03
2017-05-14T06:39:43.375Z,96.7
2017-05-14T06:40:44.065Z,96.51
2017-05-14T06:41:44.776Z,95.94
2017-05-14T06:42:45.453Z,96.8
2017-05-14T06:43:46.127Z,96.61
2017-05-14T06:44:46.794Z,95.94
2017-05-14T06:45:47.474Z,93.06
2017-05-14T06:46:48.158Z,91.86
2017-05-14T06:47:48.862Z,89.26
2017-05-14T06:48:49.580Z,89.17
2017-05-14T06:49:50.274Z,87.44
2017-05-14T06:50:50.987Z,86.33
2017-05-14T06:51:51.661Z,86.05
2017-05-14T06:52:52.399Z,84.89
2017-05-14T06:53:53.116Z,86.14
2017-05-14T06:54:53.790Z,85.03
2017-05-14T06:55:54.495Z,83.2
2017-05-14T06:56:55.176Z,81.32
2017-05-14T06:57:55.870Z,80.32
2017-05-14T06:58:56.587Z,80.51
2017-05-14T06:59:57.285Z,81.09
2017-05-14T07:00:57.992Z,80.99
2017-05-14T07:01:58.680Z,80.71
2017-05-14T07:02:59.439Z,81.19
2017-05-14T07:04:00.211Z,81.19
2017-05-14T07:05:00.930Z,80.22
2017-05-14T07:06:01.641Z,81.63
2017-05-14T07:07:02.322Z,82.92
2017-05-14T07:08:03.049Z,82.73
2017-05-14T07:09:03.734Z,81.96
2017-05-14T07:10:04.431Z,78.63
2017-05-14T07:11:05.139Z,77.51
2017-05-14T07:12:05.827Z,75.63
2017-05-14T07:13:06.520Z,75.34
2017-05-14T07:14:07.222Z,73.86
2017-05-14T07:15:07.888Z,75.15
2017-05-14T07:16:08.648Z,73.51
2017-05-14T07:17:09.335Z,72.33
2017-05-14T07:18:10.014Z,70.15
2017-05-14T07:19:10.722Z,68.42
2017-05-14T07:20:11.424Z,67.61
2017-05-14T07:21:12.157Z,69.15
2017-05-14T07:22:12.838Z,70.18
2017-05-14T07:23:13.523Z,71.49
2017-05-14T07:24:14.212Z,71.78
2017-05-14T07:25:14.955Z,72.17
2017-05-14T07:26:15.638Z,72.61
2017-05-14T07:27:16.326Z,72.67
2017-05-14T07:28:17.040Z,73.67
2017-05-14T07:29:17.775Z,70.92
2017-05-14T07:30:18.489Z,67.61
2017-05-14T07:31:19.158Z,65.24
2017-05-14T07:32:19.845Z,62.86
2017-05-14T07:33:20.542Z,61.54
2017-05-14T07:34:21.222Z,60.48
2017-05-14T07:35:21.930Z,59.3
2017-05-14T07:36:22.642Z,60.13
2017-05-14T07:37:23.343Z,58.03
2017-05-14T07:38:24.023Z,57.67
2017-05-14T07:39:24.724Z,55.71
2017-05-14T07:40:25.431Z,57.29
2017-05-14T07:41:26.125Z,56.61
2017-05-14T07:42:26.825Z,53.52
2017-05-14T07:43:27.553Z,55.74
2017-05-14T07:44:28.276Z,54.97
2017-05-14T07:45:29.005Z,54.68
2017-05-14T07:46:29.683Z,54.8
2017-05-14T07:47:30.407Z,53.64
2017-05-14T07:48:31.110Z,51.25
2017-05-14T07:49:31.847Z,51.83
2017-05-14T07:50:32.570Z,52.39
2017-05-14T07:51:33.283Z,53.55
2017-05-14T07:52:34.069Z,52.67
2017-05-14T07:53:34.784Z,53.06
2017-05-14T07:54:35.510Z,53.06
2017-05-14T07:55:36.259Z,51.71
2017-05-14T07:56:37.003Z,51.64
2017-05-14T07:57:37.698Z,50.26
2017-05-14T07:58:38.414Z,50.18
2017-05-14T07:59:39.123Z,49.8
2017-05-14T08:00:39.890Z,49.49
2017-05-14T08:01:40.637Z,48.74
2017-05-14T08:02:41.343Z,49.6
2017-05-14T08:03:42.038Z,47.86
2017-05-14T08:04:42.744Z,48.95
2017-05-14T08:05:43.496Z,47.28
2017-05-14T08:06:44.249Z,45.93
2017-05-14T08:07:44.955Z,47.77
2017-05-14T08:08:45.701Z,48.37
2017-05-14T08:09:46.397Z,46.25
2017-05-14T08:10:47.138Z,44.48
2017-05-14T08:11:47.871Z,45.83
2017-05-14T08:12:48.580Z,45.76
2017-05-14T08:13:49.278Z,45.98
2017-05-14T08:14:49.994Z,44.23
2017-05-14T08:15:50.701Z,44.26
2017-05-14T08:16:51.443Z,42.97
2017-05-14T08:17:52.128Z,42.61
2017-05-14T08:18:52.837Z,41.33
2017-05-14T08:19:53.546Z,42.49
2017-05-14T08:20:54.297Z,41.83
2017-05-14T08:21:54.989Z,41.74
2017-05-14T08:22:55.723Z,41.16
2017-05-14T08:23:56.436Z,39.88
2017-05-14T08:24:57.182Z,41.82
2017-05-14T08:25:57.889Z,40.34
2017-05-14T08:26:58.587Z,40.9
2017-05-14T08:27:59.298Z,42.55
2017-05-14T08:29:00.025Z,42.66
2017-05-14T08:30:00.750Z,41.31
2017-05-14T08:31:01.455Z,42.18
2017-05-14T08:32:02.179Z,39.74
2017-05-14T08:33:02.942Z,39.45
2017-05-14T08:34:03.642Z,41.11
2017-05-14T08:35:04.347Z,39.95
2017-05-14T08:36:05.089Z,40.05
2017-05-14T08:37:05.796Z,40.36
2017-05-14T08:38:06.545Z,40.65
2017-05-14T08:39:07.239Z,39.28
2017-05-14T08:40:07.952Z,39.95
2017-05-14T08:41:08.688Z,37.82
2017-05-14T08:42:09.409Z,38.79
2017-05-14T08:43:10.164Z,40.15
2017-05-14T08:44:10.881Z,38.7
2017-05-14T08:45:11.632Z,38.21
2017-05-14T08:46:12.339Z,39.37
2017-05-14T08:47:13.039Z,39.37
2017-05-14T08:48:13.750Z,37.73
2017-05-14T08:49:14.443Z,37.34
2017-05-14T08:50:15.181Z,38.5
2017-05-14T08:51:15.859Z,38.53
2017-05-14T08:52:16.588Z,37.44
2017-05-14T08:53:17.349Z,37.34
2017-05-14T08:54:18.092Z,38.5
2017-05-14T08:55:18.830Z,38.41
2017-05-14T08:56:19.548Z,39.16
2017-05-14T08:57:20.267Z,37.32
2017-05-14T08:58:20.974Z,37.12
2017-05-14T08:59:21.664Z,38.37
2017-05-14T09:00:22.376Z,38.68
2017-05-14T09:01:23.109Z,39.16
2017-05-14T09:02:23.819Z,38.87
2017-05-14T09:03:24.554Z,40.13
2017-05-14T09:04:25.263Z,40.32
2017-05-14T09:05:25.994Z,40.32
2017-05-14T09:06:26.744Z,39.84
2017-05-14T09:07:27.478Z,40.11
2017-05-14T09:08:28.180Z,41.17
2017-05-14T09:09:28.889Z,40.2
2017-05-14T09:10:29.600Z,38.39
2017-05-14T09:11:30.344Z,37.32
2017-05-14T09:12:31.077Z,37.88
2017-05-14T09:13:31.766Z,38.37
2017-05-14T09:14:32.540Z,38.95
2017-05-14T09:15:33.252Z,39.45
2017-05-14T09:16:34.028Z,38.87
2017-05-14T09:17:34.811Z,37.52
2017-05-14T09:18:35.506Z,37.32
2017-05-14T09:19:36.196Z,37.4
2017-05-14T09:20:36.917Z,38.08
2017-05-14T09:21:37.671Z,38.37
2017-05-14T09:22:38.380Z,39.24
2017-05-14T09:23:39.072Z,38.35
2017-05-14T09:24:39.822Z,38.37
2017-05-14T09:25:40.565Z,39.14
2017-05-14T09:26:41.293Z,38.18
2017-05-14T09:27:42.012Z,38.08
2017-05-14T09:28:42.773Z,38.29
2017-05-14T09:29:43.472Z,38.87
2017-05-14T09:30:44.177Z,37.52
2017-05-14T09:31:44.889Z,37.62
2017-05-14T09:32:45.588Z,38.58
2017-05-14T09:33:46.313Z,38.29
2017-05-14T09:34:47.042Z,39.26
2017-05-14T09:35:47.718Z,38.18
2017-05-14T09:36:48.423Z,39.04
2017-05-14T09:37:49.166Z,37.4
2017-05-14T09:38:49.887Z,38.74
2017-05-14T09:39:50.616Z,39.99
2017-05-14T09:40:51.332Z,39.32
2017-05-14T09:41:52.067Z,39.8
2017-05-14T09:42:52.792Z,40.86
2017-05-14T09:43:53.526Z,41.85
2017-05-14T09:44:54.236Z,40.28
2017-05-14T09:45:54.985Z,42
2017-05-14T09:46:55.680Z,41.83
2017-05-14T09:47:56.420Z,41.05
2017-05-14T09:48:57.161Z,40.84
2017-05-14T09:49:57.888Z,42.1
2017-05-14T09:50:58.619Z,42.48
2017-05-14T09:51:59.339Z,41.78
2017-05-14T09:53:00.032Z,41.98
2017-05-14T09:54:00.734Z,42.18
2017-05-14T09:55:01.450Z,42.44
2017-05-14T09:56:02.137Z,44.66
2017-05-14T09:57:02.863Z,43.6
2017-05-14T09:58:03.570Z,44.18
2017-05-14T09:59:04.261Z,45.62
2017-05-14T10:00:04.987Z,46.3
2017-05-14T10:01:05.717Z,45.14
2017-05-14T10:02:06.441Z,45.43
2017-05-14T10:03:07.131Z,45.79
2017-05-14T10:04:07.807Z,46.08
2017-05-14T10:05:08.513Z,46.95
2017-05-14T10:06:09.191Z,46.18
2017-05-14T10:07:09.874Z,46.66
2017-05-14T10:08:10.564Z,47.05
2017-05-14T10:09:11.262Z,45.89
2017-05-14T10:10:11.959Z,44.15
2017-05-14T10:11:12.644Z,45.6
2017-05-14T10:12:13.329Z,43.19
2017-05-14T10:13:14.020Z,42.61
2017-05-14T10:14:14.742Z,41.82
2017-05-14T10:15:15.488Z,42.79
2017-05-14T10:16:16.196Z,42.42
2017-05-14T10:17:16.911Z,41.72
2017-05-14T10:18:17.630Z,42.4
2017-05-14T10:19:18.328Z,42.59
2017-05-14T10:20:19.050Z,42.79
2017-05-14T10:21:19.748Z,44.13
2017-05-14T10:22:20.440Z,44.81
2017-05-14T10:23:21.172Z,44.71
2017-05-14T10:24:21.905Z,44.81
2017-05-14T10:25:22.587Z,45.39
2017-05-14T10:26:23.328Z,44.81
2017-05-14T10:27:24.063Z,44.42
2017-05-14T10:28:24.762Z,45.07
2017-05-14T10:29:25.486Z,43.15
2017-05-14T10:30:26.223Z,42.67
2017-05-14T10:31:26.938Z,42.96
2017-05-14T10:32:27.636Z,43.94
2017-05-14T10:33:28.367Z,44.04
2017-05-14T10:34:29.060Z,45.1
2017-05-14T10:35:29.835Z,45.2
2017-05-14T10:36:30.555Z,45.2
2017-05-14T10:37:31.276Z,45
2017-05-14T10:38:31.997Z,43.65
2017-05-14T10:39:32.688Z,43.65
2017-05-14T10:40:33.433Z,44.42
2017-05-14T10:41:34.142Z,44.71
2017-05-14T10:42:34.837Z,43.55
2017-05-14T10:43:35.568Z,44.71
2017-05-14T10:44:36.352Z,44.71
2017-05-14T10:45:37.061Z,43.65
2017-05-14T10:46:37.755Z,44.52
2017-05-14T10:47:38.441Z,45.58
2017-05-14T10:48:39.127Z,45.48
2017-05-14T10:49:39.814Z,46.23
2017-05-14T10:50:40.547Z,46.42
2017-05-14T10:51:41.240Z,46.33
2017-05-14T10:52:41.934Z,46.42
2017-05-14T10:53:42.644Z,45.46
2017-05-14T10:54:43.348Z,45.84
2017-05-14T10:55:44.021Z,46.33
2017-05-14T10:56:44.751Z,46.23
2017-05-14T10:57:45.468Z,46.55
2017-05-14T10:58:46.166Z,46.55
2017-05-14T10:59:46.869Z,45.77
2017-05-14T11:00:47.560Z,45.48
2017-05-14T11:01:48.283Z,46.93
2017-05-14T11:02:48.990Z,45.97
2017-05-14T11:03:49.747Z,46.55
2017-05-14T11:04:50.501Z,45.77
2017-05-14T11:05:51.198Z,46.83
2017-05-14T11:06:51.873Z,46.93
2017-05-14T11:07:52.599Z,46.45
2017-05-14T11:08:53.298Z,46.45
2017-05-14T11:09:54.098Z,46.55
2017-05-14T11:10:55.645Z,46.35
2017-05-14T11:11:56.323Z,46.45
2017-05-14T11:12:57.908Z,46.93
2017-05-14T11:13:59.681Z,46.73
2017-05-14T11:15:00.383Z,47.29
2017-05-14T11:16:01.928Z,47
2017-05-14T11:17:17.945Z,47.87
2017-05-14T11:18:19.129Z,48.16
2017-05-14T11:19:20.307Z,46.91
2017-05-14T11:20:20.994Z,47.22
2017-05-14T11:21:21.673Z,46.06
2017-05-14T11:22:22.381Z,45.39
2017-05-14T11:23:23.091Z,45.58
2017-05-14T11:24:23.780Z,45.48
2017-05-14T11:25:24.731Z,45.29
2017-05-14T11:26:25.459Z,45
2017-05-14T11:27:26.130Z,45.48
2017-05-14T11:28:26.827Z,44.23
2017-05-14T11:29:27.585Z,44.62
2017-05-14T11:30:28.283Z,45.39
2017-05-14T11:31:28.971Z,45.77
2017-05-14T11:32:29.750Z,45.87
2017-05-14T11:33:30.441Z,45.77
2017-05-14T11:34:31.116Z,46.64
2017-05-14T11:35:31.820Z,46.25
2017-05-14T11:36:32.511Z,46.83
2017-05-14T11:37:33.230Z,47.12
2017-05-14T11:38:33.917Z,47
2017-05-14T11:39:34.620Z,47.22
2017-05-14T11:40:35.593Z,47.22
2017-05-14T11:41:36.291Z,46.45
2017-05-14T11:42:36.993Z,46.35
2017-05-14T11:43:37.681Z,46.15
2017-05-14T11:44:38.632Z,46.45
2017-05-14T11:45:39.571Z,46.28
2017-05-14T11:46:40.452Z,46.37
2017-05-14T11:47:41.185Z,45.51
2017-05-14T11:48:41.903Z,45.51
2017-05-14T11:49:42.609Z,44.93
2017-05-14T11:50:43.308Z,45.31
2017-05-14T11:51:44.034Z,44.45
2017-05-14T11:52:44.702Z,44.64
2017-05-14T11:53:45.449Z,44.93
2017-05-14T11:54:46.184Z,45.03
2017-05-14T11:55:46.953Z,44.25
2017-05-14T11:56:47.674Z,44.45
2017-05-14T11:57:48.362Z,45.31
2017-05-14T11:58:49.614Z,46.18
2017-05-14T11:59:50.591Z,46.28
2017-05-14T12:00:51.286Z,45.82
2017-05-14T12:01:52.007Z,45.31
2017-05-14T12:02:52.719Z,45.12
2017-05-14T12:03:53.405Z,45.21
2017-05-14T12:04:54.091Z,45.77
2017-05-14T12:05:55.054Z,46.25
2017-05-14T12:06:55.905Z,46.45
2017-05-14T12:07:56.630Z,46.73
2017-05-14T12:08:57.325Z,47.12
2017-05-14T12:09:58.039Z,47.03
2017-05-14T12:10:58.791Z,46.81
2017-05-14T12:11:59.492Z,47.49
2017-05-14T12:13:00.185Z,48.44
2017-05-14T12:14:00.879Z,47.97
2017-05-14T12:15:01.604Z,48.18
2017-05-14T12:16:02.314Z,47.8
2017-05-14T12:17:05.951Z,47.41
2017-05-14T12:18:06.657Z,47.99
2017-05-14T12:19:07.403Z,47.41
2017-05-14T12:20:08.155Z,47.41
2017-05-14T12:21:08.890Z,47.03
2017-05-14T12:22:09.603Z,46.93
2017-05-14T12:23:10.332Z,47.41
2017-05-14T12:24:11.433Z,47.22
2017-05-14T12:25:12.424Z,46.35
2017-05-14T12:26:13.501Z,46.37
2017-05-14T12:27:14.209Z,46.76
2017-05-14T12:28:14.913Z,46.18
2017-05-14T12:29:15.635Z,46.37
2017-05-14T12:30:16.657Z,46.18
2017-05-14T12:31:17.414Z,46.18
2017-05-14T12:32:18.123Z,46.15
2017-05-14T12:33:18.828Z,46.86
2017-05-14T12:34:19.558Z,47.34
2017-05-14T12:35:20.263Z,46.95
2017-05-14T12:36:20.971Z,48.11
2017-05-14T12:37:21.670Z,48.21
2017-05-14T12:38:23.227Z,48.69
2017-05-14T12:39:24.469Z,48.21
2017-05-14T12:40:25.248Z,48.11
2017-05-14T12:41:25.989Z,48.01
2017-05-14T12:42:26.669Z,47.44
2017-05-14T12:43:27.370Z,46.86
2017-05-14T12:44:28.078Z,46.95
2017-05-14T12:45:29.125Z,47.24
2017-05-14T12:46:29.812Z,47.44
2017-05-14T12:47:30.503Z,47.03
2017-05-14T12:48:31.198Z,47.41
2017-05-14T12:49:31.907Z,47.7
2017-05-14T12:50:32.621Z,47.99
2017-05-14T12:51:33.343Z,48.4
2017-05-14T12:52:34.049Z,47.41
2017-05-14T12:53:34.773Z,47.03
2017-05-14T12:54:35.499Z,46.76
2017-05-14T12:55:36.207Z,46.47
2017-05-14T12:56:37.980Z,46.47
2017-05-14T12:57:38.239Z,46.18
2017-05-14T12:58:38.945Z,47.34
2017-05-14T12:59:39.670Z,46.93
2017-05-14T13:00:40.353Z,46.93
2017-05-14T13:01:41.065Z,46.73
2017-05-14T13:02:41.769Z,47.22
2017-05-14T13:03:42.459Z,46.93